Time;durP1;ratioP1;P1;durP2;ratioP2;P2;SDS_P1;SDS_P2;PMS_P1;PMS_P2;Temp;Humidity;BMP_temperature;BMP_pressure;BME280_temperature;BME280_humidity;BME280_pressure;Samples;Min_cycle;Max_cycle;Signal;HPM_P1;HPM_P2
2021/05/26 00:02:24;;;;;;;5.63;2.47;;;22.30;44.10;;;;;;6183375;28;80622;-69
2021/05/26 00:05:25;;;;;;;5.57;2.63;;;22.30;44.00;;;;;;6183101;28;80486;-69
2021/05/26 00:08:25;;;;;;;2.90;2.42;;;22.30;44.10;;;;;;6175276;28;83661;-68
2021/05/26 00:11:26;;;;;;;5.63;2.97;;;22.30;44.10;;;;;;6170082;28;80761;-67
2021/05/26 00:14:26;;;;;;;4.43;2.63;;;22.30;44.00;;;;;;6173463;28;80697;-67
2021/05/26 00:17:28;;;;;;;3.65;2.30;;;22.30;44.10;;;;;;6168336;28;80165;-69
2021/05/26 00:20:29;;;;;;;3.13;2.17;;;22.30;44.00;;;;;;6173212;28;89820;-68
2021/05/26 00:23:30;;;;;;;6.90;2.47;;;22.30;44.00;;;;;;6169019;28;80705;-67
2021/05/26 00:26:30;;;;;;;3.40;2.30;;;22.30;44.00;;;;;;6172787;28;80517;-67
2021/05/26 00:29:31;;;;;;;4.50;2.60;;;22.30;43.80;;;;;;6152610;28;81136;-69
2021/05/26 00:32:31;;;;;;;2.78;2.10;;;22.30;43.80;;;;;;6169933;28;81109;-69
2021/05/26 00:35:32;;;;;;;2.67;2.08;;;22.20;43.80;;;;;;6172350;28;80704;-69
2021/05/26 00:38:32;;;;;;;3.10;2.30;;;22.20;44.10;;;;;;6170190;28;81331;-69
2021/05/26 00:41:33;;;;;;;3.63;2.20;;;22.20;43.70;;;;;;6171162;28;81474;-68
2021/05/26 00:44:33;;;;;;;3.40;2.28;;;22.30;43.90;;;;;;6158160;28;80774;-69
2021/05/26 00:47:34;;;;;;;3.55;2.17;;;22.30;43.80;;;;;;6169727;28;80498;-69
2021/05/26 00:50:34;;;;;;;3.17;2.20;;;22.20;44.10;;;;;;6179444;28;88933;-69
2021/05/26 00:53:35;;;;;;;3.85;2.30;;;22.20;43.50;;;;;;6179591;28;80396;-69
2021/05/26 00:56:36;;;;;;;2.65;1.95;;;22.20;43.50;;;;;;6177399;28;83768;-67
2021/05/26 00:59:37;;;;;;;4.30;2.30;;;22.30;43.60;;;;;;6167022;28;83323;-67
2021/05/26 01:02:39;;;;;;;3.20;2.10;;;22.30;43.60;;;;;;6157519;28;82934;-67
2021/05/26 01:05:41;;;;;;;3.45;2.08;;;22.20;43.40;;;;;;6168907;28;82767;-67
2021/05/26 01:08:42;;;;;;;3.83;2.20;;;22.30;43.40;;;;;;6181737;28;80539;-68
2021/05/26 01:11:43;;;;;;;3.35;2.55;;;22.20;43.40;;;;;;6170042;28;83577;-67
2021/05/26 01:14:43;;;;;;;4.28;2.38;;;22.30;43.10;;;;;;6155678;28;82127;-68
2021/05/26 01:17:45;;;;;;;4.10;1.95;;;22.20;43.10;;;;;;6178232;28;83048;-69
2021/05/26 01:20:47;;;;;;;2.65;1.92;;;22.20;43.10;;;;;;6172761;28;82722;-68
2021/05/26 01:23:47;;;;;;;3.25;2.10;;;22.20;43.30;;;;;;6167024;28;82936;-68
2021/05/26 01:26:49;;;;;;;4.00;2.35;;;22.20;43.30;;;;;;6178554;28;83375;-68
2021/05/26 01:29:50;;;;;;;1.95;1.60;;;22.20;43.20;;;;;;6181100;28;80509;-69
2021/05/26 01:32:51;;;;;;;3.00;1.85;;;22.20;43.20;;;;;;6197849;28;80204;-68
2021/05/26 01:35:54;;;;;;;2.42;1.70;;;22.20;43.00;;;;;;6180574;28;81964;-69
2021/05/26 01:38:57;;;;;;;6.00;2.03;;;22.20;43.20;;;;;;6166009;28;83148;-69
2021/05/26 01:41:58;;;;;;;2.35;1.60;;;22.20;43.10;;;;;;6172692;28;80775;-68
2021/05/26 01:44:59;;;;;;;2.22;1.77;;;22.20;43.10;;;;;;6181741;28;80776;-68
2021/05/26 01:48:04;;;;;;;2.38;1.88;;;22.20;43.00;;;;;;6196027;28;82182;-67
2021/05/26 01:51:05;;;;;;;3.40;2.03;;;22.20;42.90;;;;;;6178917;28;81345;-66
2021/05/26 01:54:06;;;;;;;3.78;2.28;;;22.20;43.20;;;;;;6165128;28;80641;-68
2021/05/26 01:57:06;;;;;;;3.15;1.83;;;22.20;43.00;;;;;;6159407;28;80465;-67
2021/05/26 02:00:07;;;;;;;2.28;1.60;;;22.20;43.10;;;;;;6180106;28;83079;-68
2021/05/26 02:03:20;;;;;;;2.47;1.73;;;22.20;43.00;;;;;;6156708;28;80261;-67
2021/05/26 02:06:20;;;;;;;2.80;1.70;;;22.20;43.00;;;;;;6172951;28;82972;-67
2021/05/26 02:09:21;;;;;;;5.03;1.70;;;22.10;43.00;;;;;;6196320;28;82782;-68
2021/05/26 02:12:22;;;;;;;2.50;1.60;;;22.20;43.10;;;;;;6196365;28;82025;-68
2021/05/26 02:15:26;;;;;;;1.52;1.42;;;22.20;43.10;;;;;;6160324;28;82997;-68
2021/05/26 02:18:26;;;;;;;2.53;2.00;;;22.20;43.00;;;;;;6174957;28;80544;-68
2021/05/26 02:21:27;;;;;;;2.08;1.60;;;22.10;42.90;;;;;;6179666;28;82980;-67
2021/05/26 02:24:29;;;;;;;2.30;1.30;;;22.20;42.90;;;;;;6156859;28;80645;-67
2021/05/26 02:27:32;;;;;;;2.00;1.35;;;22.20;43.00;;;;;;6176215;28;80609;-68
2021/05/26 02:30:33;;;;;;;2.30;1.23;;;22.20;43.00;;;;;;6159729;28;81580;-67
2021/05/26 02:33:34;;;;;;;3.17;1.83;;;22.20;42.90;;;;;;6161742;28;83169;-67
2021/05/26 02:36:35;;;;;;;3.97;1.55;;;22.20;43.00;;;;;;6155901;28;82734;-67
2021/05/26 02:39:36;;;;;;;1.40;1.23;;;22.20;42.70;;;;;;6154298;28;83089;-67
2021/05/26 02:42:37;;;;;;;2.00;1.55;;;22.20;42.80;;;;;;6167007;28;81961;-67
2021/05/26 02:45:38;;;;;;;3.00;1.55;;;22.10;42.70;;;;;;6158891;28;83226;-67
2021/05/26 02:48:40;;;;;;;2.22;1.45;;;22.10;42.70;;;;;;6174846;28;82884;-68
2021/05/26 02:51:41;;;;;;;1.80;1.20;;;22.10;42.60;;;;;;6177106;28;83294;-67
2021/05/26 02:54:41;;;;;;;4.25;1.73;;;22.10;42.70;;;;;;6163021;28;82305;-68
2021/05/26 02:57:42;;;;;;;1.52;1.33;;;22.20;42.60;;;;;;6176064;28;83048;-67
2021/05/26 03:01:06;;;;;;;2.15;1.38;;;22.10;42.50;;;;;;6157682;28;81014;-67
2021/05/26 03:04:20;;;;;;;1.40;1.10;;;22.20;42.60;;;;;;6191815;28;88270;-66
2021/05/26 03:07:21;;;;;;;2.20;1.40;;;22.10;42.70;;;;;;6142870;28;82214;-66
2021/05/26 03:10:23;;;;;;;1.60;1.40;;;22.10;42.70;;;;;;6200427;28;83166;-67
2021/05/26 03:13:30;;;;;;;3.17;1.75;;;22.20;42.70;;;;;;6199335;28;81680;-67
2021/05/26 03:16:31;;;;;;;2.40;1.40;;;22.10;42.70;;;;;;6163122;28;80900;-67
2021/05/26 03:19:31;;;;;;;3.63;1.30;;;22.10;42.80;;;;;;6159235;28;80053;-66
2021/05/26 03:22:51;;;;;;;2.05;1.40;;;22.20;42.60;;;;;;6151544;28;80894;-66
2021/05/26 03:26:10;;;;;;;1.77;1.33;;;22.10;42.60;;;;;;6156327;28;80344;-66
2021/05/26 03:29:11;;;;;;;2.05;1.45;;;22.20;42.80;;;;;;6169425;28;81291;-66
2021/05/26 03:32:11;;;;;;;5.88;1.52;;;22.20;43.30;;;;;;6186121;28;81008;-66
2021/05/26 03:35:14;;;;;;;4.55;1.40;;;22.10;42.90;;;;;;6173065;28;84403;-66
2021/05/26 03:38:15;;;;;;;1.98;1.50;;;22.20;43.30;;;;;;6183143;28;82921;-66
2021/05/26 03:41:27;;;;;;;4.65;1.55;;;22.20;43.50;;;;;;6184246;28;81648;-65
2021/05/26 03:44:28;;;;;;;2.13;1.63;;;22.20;44.00;;;;;;6173562;28;80481;-67
2021/05/26 03:47:29;;;;;;;2.10;1.27;;;22.20;44.60;;;;;;6158210;28;83271;-66
2021/05/26 03:50:33;;;;;;;1.75;1.10;;;22.20;43.80;;;;;;6174448;28;83136;-68
2021/05/26 03:53:33;;;;;;;1.77;1.20;;;22.20;44.40;;;;;;6171825;28;80410;-68
2021/05/26 03:56:37;;;;;;;1.17;1.08;;;22.20;44.40;;;;;;6190863;28;83061;-68
2021/05/26 03:59:40;;;;;;;2.47;1.48;;;22.20;44.40;;;;;;6183950;28;81275;-68
2021/05/26 04:02:41;;;;;;;5.82;1.42;;;22.20;44.10;;;;;;6198598;28;83288;-68
2021/05/26 04:05:43;;;;;;;2.03;1.35;;;22.20;44.20;;;;;;6181208;28;80441;-68
2021/05/26 04:08:46;;;;;;;2.80;1.25;;;22.20;44.40;;;;;;6190075;28;83036;-66
2021/05/26 04:11:47;;;;;;;3.85;1.30;;;22.20;44.60;;;;;;6157875;28;81502;-67
2021/05/26 04:15:13;;;;;;;;;;;22.20;44.60;;;;;;6172152;28;80733;-70
2021/05/26 04:18:32;;;;;;;1.85;1.20;;;22.20;45.10;;;;;;6182261;28;79053;-69
2021/05/26 04:21:33;;;;;;;3.47;1.83;;;22.20;44.70;;;;;;6178555;28;80986;-69
2021/05/26 04:24:34;;;;;;;3.20;1.30;;;22.10;44.80;;;;;;6162084;28;83241;-72
2021/05/26 04:27:35;;;;;;;3.15;1.48;;;22.20;45.00;;;;;;6176919;28;82196;-72
2021/05/26 04:30:36;;;;;;;1.77;1.30;;;22.20;45.10;;;;;;6198002;28;83316;-72
2021/05/26 04:33:37;;;;;;;2.15;1.30;;;22.10;45.30;;;;;;6161977;28;80766;-69
2021/05/26 04:36:37;;;;;;;1.30;1.10;;;22.20;45.60;;;;;;6178741;28;80217;-69
2021/05/26 04:39:38;;;;;;;3.67;1.52;;;22.10;44.80;;;;;;6157981;28;81637;-69
2021/05/26 04:42:38;;;;;;;2.15;1.15;;;22.30;44.70;;;;;;6178418;28;83175;-70
2021/05/26 04:45:40;;;;;;;2.00;1.13;;;22.30;45.30;;;;;;6182754;28;81529;-72
2021/05/26 04:48:40;;;;;;;3.28;1.30;;;22.20;44.40;;;;;;6182000;28;81491;-70
2021/05/26 04:51:41;;;;;;;1.92;1.33;;;22.20;45.00;;;;;;6184630;28;80818;-71
2021/05/26 04:54:41;;;;;;;2.10;1.13;;;22.30;45.30;;;;;;6161841;28;84206;-69
2021/05/26 04:57:42;;;;;;;3.58;1.30;;;22.30;46.00;;;;;;6182557;28;80683;-70
2021/05/26 05:00:42;;;;;;;6.25;1.40;;;22.30;44.60;;;;;;6178110;28;80253;-69
2021/05/26 05:03:43;;;;;;;1.65;1.15;;;22.30;44.90;;;;;;6162109;28;81224;-69
2021/05/26 05:06:44;;;;;;;3.85;1.30;;;22.30;44.90;;;;;;6179029;28;80407;-68
2021/05/26 05:09:44;;;;;;;6.55;1.40;;;22.30;44.90;;;;;;6162647;28;80512;-66
2021/05/26 05:12:45;;;;;;;10.13;1.40;;;22.30;44.60;;;;;;6177353;28;80988;-69
2021/05/26 05:15:45;;;;;;;3.45;1.25;;;22.30;45.10;;;;;;6182086;28;81024;-70
2021/05/26 05:18:46;;;;;;;2.70;1.42;;;22.30;45.00;;;;;;6197345;28;80686;-69
2021/05/26 05:21:46;;;;;;;1.58;1.17;;;22.30;44.30;;;;;;6181435;28;80407;-69
2021/05/26 05:24:47;;;;;;;4.47;1.35;;;22.30;44.70;;;;;;6179844;28;80470;-67
2021/05/26 05:27:48;;;;;;;9.18;1.40;;;22.30;44.90;;;;;;6193666;28;81232;-68
2021/05/26 05:30:48;;;;;;;1.15;1.02;;;22.30;44.60;;;;;;6160416;28;80439;-70
2021/05/26 05:33:49;;;;;;;3.38;1.30;;;22.30;44.10;;;;;;6156075;28;80641;-69
2021/05/26 05:36:49;;;;;;;6.65;1.50;;;22.30;44.10;;;;;;6177339;28;81392;-71
2021/05/26 05:39:50;;;;;;;2.55;1.45;;;22.30;44.20;;;;;;6161897;28;81657;-70
2021/05/26 05:42:50;;;;;;;10.93;1.10;;;22.30;44.50;;;;;;6148609;28;82143;-69
2021/05/26 05:45:51;;;;;;;5.40;1.45;;;22.30;43.90;;;;;;6155504;28;81984;-68
2021/05/26 05:48:51;;;;;;;4.72;1.23;;;22.30;43.70;;;;;;6179199;28;81308;-68
2021/05/26 05:51:52;;;;;;;4.90;1.20;;;22.30;43.20;;;;;;6159238;28;80480;-68
2021/05/26 05:54:52;;;;;;;3.42;1.30;;;22.20;42.70;;;;;;6176693;28;81736;-68
2021/05/26 05:57:54;;;;;;;3.03;1.25;;;22.30;42.40;;;;;;6160299;28;80428;-68
2021/05/26 06:00:54;;;;;;;10.00;1.80;;;22.30;42.20;;;;;;6156512;28;80415;-69
2021/05/26 06:03:55;;;;;;;3.63;1.55;;;22.20;42.00;;;;;;6171603;28;81056;-69
2021/05/26 06:06:55;;;;;;;6.15;1.52;;;22.20;41.90;;;;;;6158343;28;81398;-69
2021/05/26 06:09:56;;;;;;;2.22;1.20;;;22.20;42.00;;;;;;6155354;28;80562;-69
2021/05/26 06:12:58;;;;;;;1.63;1.02;;;22.20;41.70;;;;;;6156883;28;80333;-69
2021/05/26 06:15:58;;;;;;;2.75;1.35;;;22.20;41.60;;;;;;6166141;28;83744;-69
2021/05/26 06:18:59;;;;;;;1.38;1.05;;;22.20;41.60;;;;;;6178691;28;80372;-70
2021/05/26 06:22:00;;;;;;;4.57;1.15;;;22.20;41.20;;;;;;6179058;28;80666;-70
2021/05/26 06:25:01;;;;;;;2.58;1.00;;;22.20;41.20;;;;;;6195682;28;82793;-70
2021/05/26 06:28:01;;;;;;;2.80;1.27;;;22.20;41.30;;;;;;6180579;28;80345;-70
2021/05/26 06:31:02;;;;;;;2.55;1.15;;;22.20;41.20;;;;;;6178793;28;80284;-70
2021/05/26 06:34:02;;;;;;;4.72;1.23;;;22.20;40.80;;;;;;6179490;28;81207;-70
2021/05/26 06:37:04;;;;;;;1.90;1.02;;;22.20;41.10;;;;;;6170107;28;80718;-70
2021/05/26 06:40:05;;;;;;;2.80;1.00;;;22.20;41.20;;;;;;6188019;28;80380;-70
2021/05/26 06:43:06;;;;;;;3.45;1.20;;;22.20;40.90;;;;;;6184650;28;84325;-70
2021/05/26 06:46:06;;;;;;;4.78;1.33;;;22.20;40.90;;;;;;6161844;28;80458;-71
2021/05/26 06:49:07;;;;;;;1.58;1.00;;;22.20;40.60;;;;;;6162525;28;80405;-70
2021/05/26 06:52:08;;;;;;;2.42;1.00;;;22.20;40.70;;;;;;6183501;28;80872;-70
2021/05/26 06:55:08;;;;;;;2.30;1.23;;;22.20;40.50;;;;;;6160686;28;80610;-70
2021/05/26 06:58:09;;;;;;;2.25;1.20;;;22.20;40.40;;;;;;6160898;28;80281;-70
2021/05/26 07:01:10;;;;;;;1.63;1.17;;;22.20;40.50;;;;;;6183367;28;87561;-66
2021/05/26 07:04:11;;;;;;;2.08;1.23;;;22.20;40.40;;;;;;6184974;28;81036;-69
2021/05/26 07:07:11;;;;;;;4.03;1.40;;;22.20;40.30;;;;;;6184454;28;81614;-70
2021/05/26 07:10:12;;;;;;;5.57;1.20;;;22.20;40.10;;;;;;6184069;28;80449;-69
2021/05/26 07:13:12;;;;;;;4.18;1.38;;;22.30;40.30;;;;;;6161342;28;80875;-67
2021/05/26 07:16:13;;;;;;;2.30;1.38;;;22.20;39.70;;;;;;6158658;28;80850;-68
2021/05/26 07:19:13;;;;;;;2.00;0.95;;;22.20;38.20;;;;;;6183709;28;80075;-69
2021/05/26 07:22:14;;;;;;;2.85;1.27;;;22.20;37.10;;;;;;6160138;28;80542;-70
2021/05/26 07:25:14;;;;;;;3.28;1.23;;;22.10;36.20;;;;;;6182945;28;80378;-69
2021/05/26 07:28:15;;;;;;;2.35;1.20;;;22.10;35.80;;;;;;6183170;28;80524;-70
2021/05/26 07:31:15;;;;;;;5.13;2.10;;;22.10;35.30;;;;;;6183449;28;80491;-69
2021/05/26 07:34:16;;;;;;;5.85;2.35;;;22.10;35.80;;;;;;6159966;28;81979;-69
2021/05/26 07:37:16;;;;;;;2.10;1.45;;;22.10;35.40;;;;;;6183059;28;81344;-70
2021/05/26 07:40:17;;;;;;;3.50;1.73;;;22.10;35.80;;;;;;6160358;28;80361;-69
2021/05/26 07:43:19;;;;;;;2.42;1.33;;;22.00;36.00;;;;;;6180941;28;83610;-69
2021/05/26 07:46:20;;;;;;;2.55;1.10;;;22.10;36.30;;;;;;6182667;28;81117;-70
2021/05/26 07:49:21;;;;;;;1.23;1.00;;;22.10;36.20;;;;;;6184635;28;80233;-69
2021/05/26 07:52:21;;;;;;;7.88;1.30;;;22.10;35.50;;;;;;6182811;28;81492;-67
2021/05/26 07:55:22;;;;;;;2.65;1.20;;;22.10;35.50;;;;;;6183728;28;80261;-67
2021/05/26 07:58:22;;;;;;;4.07;1.50;;;22.10;36.60;;;;;;6182918;28;80531;-70
2021/05/26 08:01:23;;;;;;;3.53;1.52;;;22.20;36.20;;;;;;6181858;28;80355;-69
2021/05/26 08:04:23;;;;;;;4.38;1.40;;;22.20;35.70;;;;;;6161241;28;80329;-70
2021/05/26 08:07:24;;;;;;;16.80;2.10;;;22.20;36.30;;;;;;6162647;28;80400;-69
2021/05/26 08:10:24;;;;;;;1.95;1.23;;;22.20;36.10;;;;;;6151171;28;82197;-70
2021/05/26 08:13:25;;;;;;;4.43;1.55;;;22.20;36.80;;;;;;6159150;28;80504;-68
2021/05/26 08:16:25;;;;;;;2.63;1.17;;;22.20;37.30;;;;;;6160247;28;80590;-69
2021/05/26 08:19:26;;;;;;;1.75;1.30;;;22.20;36.70;;;;;;6161377;28;80918;-69
2021/05/26 08:22:26;;;;;;;2.53;1.13;;;22.20;36.40;;;;;;6183329;28;80476;-69
2021/05/26 08:25:27;;;;;;;3.60;1.33;;;22.20;36.20;;;;;;6183550;28;80340;-69
2021/05/26 08:28:27;;;;;;;2.35;1.20;;;22.20;36.70;;;;;;6181087;28;80286;-70
2021/05/26 08:31:27;;;;;;;2.70;1.10;;;22.30;37.10;;;;;;6161178;28;80694;-70
2021/05/26 08:34:28;;;;;;;1.98;1.05;;;22.30;36.90;;;;;;6154109;28;81504;-69
2021/05/26 08:37:28;;;;;;;3.25;1.90;;;22.30;36.40;;;;;;6182741;28;80757;-70
2021/05/26 08:40:29;;;;;;;5.32;1.65;;;22.20;36.30;;;;;;6181584;28;81092;-72
2021/05/26 08:43:29;;;;;;;4.93;1.85;;;22.30;35.50;;;;;;6158719;28;82484;-70
2021/05/26 08:46:30;;;;;;;1.25;1.15;;;22.30;35.40;;;;;;6155576;28;81588;-70
2021/05/26 08:49:30;;;;;;;6.20;1.30;;;22.30;34.70;;;;;;6175472;28;80731;-68
2021/05/26 08:52:31;;;;;;;4.93;1.25;;;22.30;34.60;;;;;;6153452;28;80577;-70
2021/05/26 08:55:31;;;;;;;9.43;1.35;;;22.20;35.20;;;;;;6170747;28;82036;-70
2021/05/26 08:58:32;;;;;;;6.55;1.23;;;22.30;34.50;;;;;;6156237;28;80454;-70
2021/05/26 09:01:32;;;;;;;4.70;1.15;;;22.30;34.30;;;;;;6180580;28;80146;-71
2021/05/26 09:04:33;;;;;;;3.15;1.00;;;22.30;33.40;;;;;;6172375;28;80785;-69
2021/05/26 09:07:33;;;;;;;1.67;1.00;;;22.20;33.00;;;;;;6150213;28;80587;-70
2021/05/26 09:10:34;;;;;;;4.63;1.10;;;22.20;33.10;;;;;;6175556;28;80941;-71
2021/05/26 09:13:35;;;;;;;3.20;1.30;;;22.20;33.30;;;;;;6155522;28;89544;-71
2021/05/26 09:16:35;;;;;;;3.67;1.95;;;22.20;33.30;;;;;;6174741;28;80837;-71
2021/05/26 09:19:36;;;;;;;2.78;1.50;;;22.30;33.50;;;;;;6174391;28;80503;-72
2021/05/26 09:22:37;;;;;;;3.38;1.30;;;22.30;32.90;;;;;;6157086;28;81161;-73
2021/05/26 09:25:38;;;;;;;2.60;1.33;;;22.30;33.20;;;;;;6173857;28;80407;-73
2021/05/26 09:28:39;;;;;;;1.92;1.10;;;22.30;33.60;;;;;;6154437;28;81422;-72
2021/05/26 09:31:39;;;;;;;4.55;1.67;;;22.30;33.30;;;;;;6172122;28;80366;-73
2021/05/26 09:34:40;;;;;;;1.60;0.93;;;22.30;32.70;;;;;;6177461;28;80482;-74
2021/05/26 09:37:43;;;;;;;2.70;1.20;;;22.40;32.70;;;;;;6179853;28;80470;-72
2021/05/26 09:40:43;;;;;;;1.63;1.10;;;22.40;33.10;;;;;;6175739;28;80665;-72
2021/05/26 09:43:44;;;;;;;2.25;1.10;;;22.30;33.30;;;;;;6158909;28;80046;-71
2021/05/26 09:46:44;;;;;;;2.75;1.20;;;22.40;33.70;;;;;;6158663;28;80546;-71
2021/05/26 09:49:45;;;;;;;2.28;1.15;;;22.40;33.00;;;;;;6174923;28;81503;-74
2021/05/26 09:52:45;;;;;;;1.65;1.10;;;22.30;32.10;;;;;;6160732;28;80615;-71
2021/05/26 09:55:46;;;;;;;3.70;1.55;;;22.30;31.20;;;;;;6163628;28;80680;-71
2021/05/26 09:58:46;;;;;;;6.90;1.45;;;22.40;31.40;;;;;;6154039;28;80917;-70
2021/05/26 10:01:47;;;;;;;1.98;1.00;;;22.30;30.90;;;;;;6152239;28;81278;-71
2021/05/26 10:04:47;;;;;;;3.80;1.08;;;22.30;29.90;;;;;;6144417;28;80827;-70
2021/05/26 10:08:12;;;;;;;3.63;0.98;;;22.30;30.70;;;;;;6162992;28;81581;-71
2021/05/26 10:11:13;;;;;;;4.65;1.27;;;22.30;30.60;;;;;;6182863;28;83850;-71
2021/05/26 10:14:17;;;;;;;2.00;0.90;;;22.30;30.60;;;;;;6160709;28;83408;-70
2021/05/26 10:17:20;;;;;;;2.83;1.10;;;22.40;30.90;;;;;;6170313;28;80172;-68
2021/05/26 10:20:20;;;;;;;2.40;1.10;;;22.40;30.70;;;;;;6148159;27;82114;-70
2021/05/26 10:23:21;;;;;;;3.22;1.48;;;22.40;30.00;;;;;;6163925;28;80582;-70
2021/05/26 10:26:22;;;;;;;2.22;1.20;;;22.40;30.30;;;;;;6162368;28;80442;-71
2021/05/26 10:29:22;;;;;;;3.58;1.60;;;22.40;31.30;;;;;;6164507;28;81437;-71
2021/05/26 10:32:24;;;;;;;2.97;1.17;;;22.40;32.10;;;;;;6168924;28;80230;-72
2021/05/26 10:35:24;;;;;;;4.80;1.20;;;22.50;33.10;;;;;;6154194;27;80390;-70
2021/05/26 10:38:25;;;;;;;2.05;1.10;;;22.50;34.60;;;;;;6160023;28;81557;-69
2021/05/26 10:41:25;;;;;;;2.05;1.20;;;22.50;36.30;;;;;;6166557;28;80655;-72
2021/05/26 10:44:26;;;;;;;3.22;1.23;;;22.40;36.10;;;;;;6152331;28;80741;-68
2021/05/26 10:47:26;;;;;;;6.57;1.20;;;22.40;32.30;;;;;;6152930;28;80400;-69
2021/05/26 10:50:27;;;;;;;2.45;1.20;;;22.40;32.80;;;;;;6152795;28;81583;-70
2021/05/26 10:53:27;;;;;;;1.73;1.15;;;22.40;32.20;;;;;;6158345;28;81841;-71
2021/05/26 10:56:28;;;;;;;2.83;1.00;;;22.40;30.40;;;;;;6177300;27;80545;-70
2021/05/26 10:59:28;;;;;;;6.15;1.40;;;22.50;30.90;;;;;;6178001;28;81995;-70
2021/05/26 11:02:29;;;;;;;2.35;0.90;;;22.40;30.80;;;;;;6192326;27;81407;-69
2021/05/26 11:05:29;;;;;;;1.88;0.90;;;22.50;31.40;;;;;;6172208;28;82810;-69
2021/05/26 11:08:30;;;;;;;4.63;1.50;;;22.50;30.90;;;;;;6166515;28;80805;-69
2021/05/26 11:11:38;;;;;;;2.83;1.15;;;22.50;31.70;;;;;;6152522;28;80493;-69
2021/05/26 11:14:38;;;;;;;2.58;0.90;;;22.50;32.00;;;;;;6154896;28;80884;-69
2021/05/26 11:17:40;;;;;;;3.30;1.20;;;22.50;32.00;;;;;;6161234;28;80532;-69
2021/05/26 11:20:41;;;;;;;3.33;1.45;;;22.50;31.90;;;;;;6165036;28;80705;-70
2021/05/26 11:23:41;;;;;;;2.35;1.60;;;22.50;32.40;;;;;;6150021;28;80337;-71
2021/05/26 11:26:42;;;;;;;3.30;1.40;;;22.50;32.70;;;;;;6148291;28;80566;-70
2021/05/26 11:29:42;;;;;;;3.80;1.35;;;22.50;32.60;;;;;;6164070;28;80585;-70
2021/05/26 11:32:43;;;;;;;2.67;1.55;;;22.60;32.90;;;;;;6178139;28;83342;-69
2021/05/26 11:35:43;;;;;;;1.83;1.45;;;22.60;33.10;;;;;;6155311;28;81513;-69
2021/05/26 11:38:45;;;;;;;2.92;1.60;;;22.60;33.10;;;;;;6150462;28;81271;-70
2021/05/26 11:41:46;;;;;;;2.38;1.27;;;22.60;33.00;;;;;;6156007;28;83249;-69
2021/05/26 11:44:47;;;;;;;2.05;1.10;;;22.60;33.30;;;;;;6156666;28;80891;-69
2021/05/26 11:47:48;;;;;;;2.20;1.17;;;22.60;33.30;;;;;;6169869;28;80320;-71
2021/05/26 11:50:48;;;;;;;2.72;1.55;;;22.60;33.80;;;;;;6181065;27;80533;-71
2021/05/26 11:53:49;;;;;;;3.65;1.65;;;22.60;34.00;;;;;;6161253;28;80052;-70
2021/05/26 11:56:49;;;;;;;1.85;1.10;;;22.60;34.20;;;;;;6172412;28;80410;-70
2021/05/26 11:59:50;;;;;;;2.70;1.10;;;22.60;34.20;;;;;;6167439;28;87288;-71
2021/05/26 12:02:50;;;;;;;2.38;1.25;;;22.60;34.90;;;;;;6169194;28;80671;-71
2021/05/26 12:05:52;;;;;;;1.60;1.23;;;22.70;35.50;;;;;;6156776;28;80596;-71
2021/05/26 12:08:53;;;;;;;1.95;1.17;;;22.60;35.60;;;;;;6157141;28;80358;-70
2021/05/26 12:11:54;;;;;;;2.67;1.20;;;22.70;35.70;;;;;;6170071;28;80712;-71
2021/05/26 12:14:54;;;;;;;4.70;1.40;;;22.60;36.00;;;;;;6159524;28;80762;-70
2021/05/26 12:17:55;;;;;;;2.80;1.30;;;22.60;36.60;;;;;;6146178;28;80876;-69
2021/05/26 12:20:56;;;;;;;1.73;1.23;;;22.60;36.80;;;;;;6157335;28;81789;-70
2021/05/26 12:23:56;;;;;;;1.63;1.23;;;22.60;36.50;;;;;;6179604;28;80414;-69
2021/05/26 12:26:57;;;;;;;4.30;1.98;;;22.60;36.50;;;;;;6158630;28;80677;-69
2021/05/26 12:29:57;;;;;;;1.88;1.30;;;22.60;36.10;;;;;;6167890;28;81080;-69
2021/05/26 12:32:58;;;;;;;2.58;1.30;;;22.60;35.90;;;;;;6182939;28;80161;-69
2021/05/26 12:35:58;;;;;;;2.08;1.38;;;22.60;35.90;;;;;;6182912;28;80366;-69
2021/05/26 12:38:59;;;;;;;2.45;1.15;;;22.60;36.10;;;;;;6163205;28;80466;-69
2021/05/26 12:41:59;;;;;;;4.40;1.42;;;22.60;35.90;;;;;;6160949;28;81935;-69
2021/05/26 12:45:00;;;;;;;2.78;1.48;;;22.60;35.70;;;;;;6175132;28;80521;-69
2021/05/26 12:48:01;;;;;;;1.95;1.33;;;22.60;35.70;;;;;;6182403;28;80445;-68
2021/05/26 12:51:01;;;;;;;1.48;1.23;;;22.60;35.50;;;;;;6196887;28;81560;-68
2021/05/26 12:54:02;;;;;;;2.65;1.73;;;22.60;35.40;;;;;;6182717;28;81900;-69
2021/05/26 12:57:02;;;;;;;3.22;1.58;;;22.60;35.40;;;;;;6181440;28;80193;-68
2021/05/26 13:00:03;;;;;;;3.10;1.20;;;22.60;35.20;;;;;;6164574;28;80855;-68
2021/05/26 13:03:03;;;;;;;2.80;1.20;;;22.60;34.60;;;;;;6142554;28;81847;-68
2021/05/26 13:06:05;;;;;;;3.38;1.30;;;22.60;35.20;;;;;;6166453;28;80548;-69
2021/05/26 13:09:06;;;;;;;1.25;1.05;;;22.60;34.40;;;;;;6159562;28;80536;-69
2021/05/26 13:12:07;;;;;;;1.65;1.30;;;22.60;34.00;;;;;;6184100;28;80355;-68
2021/05/26 13:15:07;;;;;;;2.85;1.40;;;22.70;34.40;;;;;;6189052;28;81208;-67
2021/05/26 13:18:08;;;;;;;2.20;1.20;;;22.70;34.50;;;;;;6163721;28;81284;-68
2021/05/26 13:21:08;;;;;;;5.40;1.27;;;22.70;34.60;;;;;;6189845;28;80643;-67
2021/05/26 13:24:09;;;;;;;1.60;1.02;;;22.70;35.20;;;;;;6174878;28;80807;-68
2021/05/26 13:27:10;;;;;;;9.27;3.03;;;22.70;33.50;;;;;;6176880;28;83800;-69
2021/05/26 13:30:10;;;;;;;69.90;23.00;;;22.70;33.90;;;;;;6179899;28;80550;-68
2021/05/26 13:33:11;;;;;;;171.20;59.50;;;22.70;34.10;;;;;;6181228;28;85562;-67
2021/05/26 13:36:11;;;;;;;207.63;74.18;;;22.70;33.90;;;;;;6172272;28;83305;-67
2021/05/26 13:39:12;;;;;;;175.27;61.53;;;22.70;34.10;;;;;;6157236;28;83909;-70
2021/05/26 13:42:12;;;;;;;162.68;55.45;;;22.70;34.00;;;;;;6146758;28;84015;-68
2021/05/26 13:45:13;;;;;;;134.75;49.50;;;22.70;33.80;;;;;;6146749;28;83506;-68
2021/05/26 13:48:14;;;;;;;130.63;45.88;;;22.70;33.90;;;;;;6160544;27;82927;-67
2021/05/26 13:51:15;;;;;;;122.88;41.25;;;22.70;34.30;;;;;;6175839;28;83670;-68
2021/05/26 13:54:16;;;;;;;121.53;41.47;;;22.70;34.30;;;;;;6168893;28;83282;-68
2021/05/26 13:57:16;;;;;;;117.68;39.53;;;22.70;34.40;;;;;;6174514;28;82957;-69
2021/05/26 14:00:17;;;;;;;101.22;34.85;;;22.70;34.40;;;;;;6174207;28;83369;-68
2021/05/26 14:03:17;;;;;;;92.18;30.73;;;22.70;34.20;;;;;;6163751;28;83161;-69
2021/05/26 14:06:18;;;;;;;84.35;29.17;;;22.70;34.00;;;;;;6149148;28;84936;-68
2021/05/26 14:09:19;;;;;;;64.80;24.15;;;22.70;33.90;;;;;;6164736;28;83080;-69
2021/05/26 14:12:20;;;;;;;62.17;21.17;;;22.70;33.70;;;;;;6151720;27;83626;-70
2021/05/26 14:15:20;;;;;;;57.97;20.98;;;22.70;33.40;;;;;;6147368;28;83879;-69
2021/05/26 14:18:21;;;;;;;60.10;19.77;;;22.70;33.40;;;;;;6154020;28;83014;-69
2021/05/26 14:21:22;;;;;;;45.10;16.85;;;22.70;33.70;;;;;;6152480;28;83099;-69
2021/05/26 14:24:23;;;;;;;45.63;15.93;;;22.70;33.90;;;;;;6152233;28;83548;-68
2021/05/26 14:27:24;;;;;;;43.83;15.43;;;22.70;33.50;;;;;;6150946;28;85687;-68
2021/05/26 14:30:24;;;;;;;38.95;13.98;;;22.70;33.90;;;;;;6168223;28;83279;-69
2021/05/26 14:33:25;;;;;;;32.65;12.48;;;22.70;33.80;;;;;;6158953;28;83459;-69
2021/05/26 14:36:28;;;;;;;31.63;11.82;;;22.70;33.90;;;;;;6170896;28;84462;-68
2021/05/26 14:39:34;;;;;;;32.88;11.70;;;22.70;34.00;;;;;;6158344;28;83015;-68
2021/05/26 14:42:35;;;;;;;28.42;10.32;;;22.70;34.20;;;;;;6147712;28;90193;-68
2021/05/26 14:45:35;;;;;;;26.70;9.57;;;22.70;34.10;;;;;;6150023;28;83583;-68
2021/05/26 14:48:36;;;;;;;25.10;9.50;;;22.70;34.00;;;;;;6163770;28;82912;-69
2021/05/26 14:51:36;;;;;;;21.38;8.45;;;22.70;34.00;;;;;;6155413;28;80526;-68
2021/05/26 14:54:37;;;;;;;20.35;7.57;;;22.60;33.70;;;;;;6175506;28;80641;-68
2021/05/26 14:57:38;;;;;;;19.88;7.18;;;22.70;33.90;;;;;;6159299;28;80525;-68
2021/05/26 15:00:38;;;;;;;24.88;8.57;;;22.70;33.80;;;;;;6156660;28;80718;-68
2021/05/26 15:03:39;;;;;;;14.82;6.45;;;22.70;34.00;;;;;;6174918;28;80515;-68
2021/05/26 15:06:39;;;;;;;18.35;6.25;;;22.70;34.80;;;;;;6162586;28;80483;-69
2021/05/26 15:09:40;;;;;;;15.23;5.82;;;22.80;34.70;;;;;;6179612;28;81197;-68
2021/05/26 15:12:40;;;;;;;14.68;6.40;;;22.90;34.60;;;;;;6178261;28;80514;-68
2021/05/26 15:15:41;;;;;;;15.50;5.03;;;22.90;35.10;;;;;;6199423;28;80329;-70
2021/05/26 15:18:41;;;;;;;14.00;4.82;;;22.80;35.00;;;;;;6183496;28;82609;-67
2021/05/26 15:21:42;;;;;;;14.82;4.82;;;22.80;34.70;;;;;;6195918;28;83092;-67
2021/05/26 15:24:42;;;;;;;9.30;4.95;;;22.80;35.60;;;;;;6165429;28;80442;-68
2021/05/26 15:27:43;;;;;;;7.15;3.65;;;22.70;35.20;;;;;;6180161;28;80513;-67
2021/05/26 15:30:44;;;;;;;8.35;4.13;;;22.80;35.10;;;;;;6162198;28;80800;-67
2021/05/26 15:33:44;;;;;;;14.18;3.70;;;22.80;35.10;;;;;;6178328;28;80646;-67
2021/05/26 15:36:45;;;;;;;9.35;3.60;;;22.80;35.20;;;;;;6182681;28;80656;-66
2021/05/26 15:39:45;;;;;;;6.95;3.42;;;22.70;35.50;;;;;;6192156;28;83143;-66
2021/05/26 15:42:46;;;;;;;8.68;3.92;;;22.70;35.60;;;;;;6183446;28;80478;-67